sensor_id;sensor_type;location;lat;lon;timestamp;pressure;altitude;pressure_sealevel;temperature;humidity
7168;BME280;3625;51.762;14.320;2023-05-09T00:00:05;101602.50;;;8.24;77.37
7168;BME280;3625;51.762;14.320;2023-05-09T00:02:39;101590.16;;;8.17;77.06
7168;BME280;3625;51.762;14.320;2023-05-09T00:05:14;101592.78;;;8.14;77.24
7168;BME280;3625;51.762;14.320;2023-05-09T00:07:43;101590.13;;;8.14;77.03
7168;BME280;3625;51.762;14.320;2023-05-09T00:10:12;101585.75;;;8.16;76.15
7168;BME280;3625;51.762;14.320;2023-05-09T00:12:40;101587.50;;;8.16;76.18
7168;BME280;3625;51.762;14.320;2023-05-09T00:15:11;101587.53;;;8.23;75.65
7168;BME280;3625;51.762;14.320;2023-05-09T00:17:40;101595.50;;;8.28;74.96
7168;BME280;3625;51.762;14.320;2023-05-09T00:20:12;101586.69;;;8.30;74.71
7168;BME280;3625;51.762;14.320;2023-05-09T00:22:42;101582.28;;;8.25;74.21
7168;BME280;3625;51.762;14.320;2023-05-09T00:25:11;101588.44;;;8.25;74.06
7168;BME280;3625;51.762;14.320;2023-05-09T00:27:40;101582.28;;;8.20;74.00
7168;BME280;3625;51.762;14.320;2023-05-09T00:30:09;101579.63;;;8.22;73.83
7168;BME280;3625;51.762;14.320;2023-05-09T00:32:38;101571.75;;;8.20;73.58
7168;BME280;3625;51.762;14.320;2023-05-09T00:35:08;101576.94;;;8.14;73.33
7168;BME280;3625;51.762;14.320;2023-05-09T00:37:38;101566.47;;;8.20;72.31
7168;BME280;3625;51.762;14.320;2023-05-09T00:40:08;101566.44;;;8.17;72.37
7168;BME280;3625;51.762;14.320;2023-05-09T00:42:37;101564.63;;;8.13;72.49
7168;BME280;3625;51.762;14.320;2023-05-09T00:45:06;101573.41;;;8.06;72.50
7168;BME280;3625;51.762;14.320;2023-05-09T00:47:35;101564.59;;;8.01;72.84
7168;BME280;3625;51.762;14.320;2023-05-09T00:50:06;101564.63;;;8.07;72.74
7168;BME280;3625;51.762;14.320;2023-05-09T00:52:37;101554.09;;;8.10;72.42
7168;BME280;3625;51.762;14.320;2023-05-09T00:55:07;101549.69;;;8.08;72.43
7168;BME280;3625;51.762;14.320;2023-05-09T00:57:36;101548.78;;;8.06;72.34
7168;BME280;3625;51.762;14.320;2023-05-09T01:00:06;101549.66;;;8.05;72.24
7168;BME280;3625;51.762;14.320;2023-05-09T01:02:40;101546.97;;;7.97;72.47
7168;BME280;3625;51.762;14.320;2023-05-09T01:05:09;101541.69;;;7.91;72.55
7168;BME280;3625;51.762;14.320;2023-05-09T01:07:45;101540.75;;;7.83;73.14
7168;BME280;3625;51.762;14.320;2023-05-09T01:10:22;101543.38;;;7.80;73.98
7168;BME280;3625;51.762;14.320;2023-05-09T01:13:00;101538.09;;;7.77;73.74
7168;BME280;3625;51.762;14.320;2023-05-09T01:15:36;101537.19;;;7.75;74.21
7168;BME280;3625;51.762;14.320;2023-05-09T01:18:17;101537.16;;;7.70;74.01
7168;BME280;3625;51.762;14.320;2023-05-09T01:20:52;101535.38;;;7.66;74.19
7168;BME280;3625;51.762;14.320;2023-05-09T01:23:58;101528.31;;;7.59;73.91
7168;BME280;3625;51.762;14.320;2023-05-09T01:26:43;101534.41;;;7.55;75.48
7168;BME280;3625;51.762;14.320;2023-05-09T01:29:40;101537.03;;;7.53;75.77
7168;BME280;3625;51.762;14.320;2023-05-09T01:32:15;101535.22;;;7.45;75.39
7168;BME280;3625;51.762;14.320;2023-05-09T01:34:47;101538.72;;;7.41;76.96
7168;BME280;3625;51.762;14.320;2023-05-09T01:37:21;101534.34;;;7.43;76.99
7168;BME280;3625;51.762;14.320;2023-05-09T01:39:53;101534.31;;;7.41;75.79
7168;BME280;3625;51.762;14.320;2023-05-09T01:42:25;101533.41;;;7.35;75.69
7168;BME280;3625;51.762;14.320;2023-05-09T01:44:58;101521.03;;;7.26;76.09
7168;BME280;3625;51.762;14.320;2023-05-09T01:47:28;101524.53;;;7.27;77.94
7168;BME280;3625;51.762;14.320;2023-05-09T01:49:57;101522.75;;;7.23;77.41
7168;BME280;3625;51.762;14.320;2023-05-09T01:52:30;101530.63;;;7.21;78.07
7168;BME280;3625;51.762;14.320;2023-05-09T01:55:00;101517.44;;;7.16;79.10
7168;BME280;3625;51.762;14.320;2023-05-09T01:57:30;101516.50;;;7.07;78.94
7168;BME280;3625;51.762;14.320;2023-05-09T02:00:21;101515.53;;;7.02;79.69
7168;BME280;3625;51.762;14.320;2023-05-09T02:02:53;101514.59;;;6.91;78.90
7168;BME280;3625;51.762;14.320;2023-05-09T02:05:25;101509.25;;;6.86;80.89
7168;BME280;3625;51.762;14.320;2023-05-09T02:07:56;101514.44;;;6.78;80.82
7168;BME280;3625;51.762;14.320;2023-05-09T02:10:26;101515.31;;;6.74;82.69
7168;BME280;3625;51.762;14.320;2023-05-09T02:12:56;101510.00;;;6.71;82.81
7168;BME280;3625;51.762;14.320;2023-05-09T02:15:26;101516.94;;;6.66;81.99
7168;BME280;3625;51.762;14.320;2023-05-09T02:17:56;101514.25;;;6.60;81.96
7168;BME280;3625;51.762;14.320;2023-05-09T02:20:25;101505.41;;;6.52;82.12
7168;BME280;3625;51.762;14.320;2023-05-09T02:22:55;101510.59;;;6.46;81.87
7168;BME280;3625;51.762;14.320;2023-05-09T02:25:24;101507.97;;;6.46;83.64
7168;BME280;3625;51.762;14.320;2023-05-09T02:27:55;101516.75;;;6.47;85.05
7168;BME280;3625;51.762;14.320;2023-05-09T02:30:26;101515.84;;;6.46;85.73
7168;BME280;3625;51.762;14.320;2023-05-09T02:33:01;101511.47;;;6.47;85.91
7168;BME280;3625;51.762;14.320;2023-05-09T02:35:35;101508.00;;;6.48;86.86
7168;BME280;3625;51.762;14.320;2023-05-09T02:38:05;101508.81;;;6.43;87.17
7168;BME280;3625;51.762;14.320;2023-05-09T02:40:35;101512.25;;;6.38;86.96
7168;BME280;3625;51.762;14.320;2023-05-09T02:43:03;101512.16;;;6.30;85.46
7168;BME280;3625;51.762;14.320;2023-05-09T02:45:33;101519.19;;;6.33;87.55
7168;BME280;3625;51.762;14.320;2023-05-09T02:48:02;101521.78;;;6.28;88.43
7168;BME280;3625;51.762;14.320;2023-05-09T02:50:35;101520.81;;;6.22;86.80
7168;BME280;3625;51.762;14.320;2023-05-09T02:53:06;101519.00;;;6.18;86.17
7168;BME280;3625;51.762;14.320;2023-05-09T02:55:34;101518.19;;;6.22;89.73
7168;BME280;3625;51.762;14.320;2023-05-09T02:58:03;101520.81;;;6.22;89.02
7168;BME280;3625;51.762;14.320;2023-05-09T03:00:42;101527.75;;;6.17;88.58
7168;BME280;3625;51.762;14.320;2023-05-09T03:03:13;101526.78;;;6.10;88.87
7168;BME280;3625;51.762;14.320;2023-05-09T03:05:45;101522.44;;;6.12;92.45
7168;BME280;3625;51.762;14.320;2023-05-09T03:08:14;101516.31;;;6.12;91.84
7168;BME280;3625;51.762;14.320;2023-05-09T03:10:43;101505.75;;;6.09;90.96
7168;BME280;3625;51.762;14.320;2023-05-09T03:13:13;101503.13;;;6.09;91.17
7168;BME280;3625;51.762;14.320;2023-05-09T03:15:43;101506.66;;;6.11;90.83
7168;BME280;3625;51.762;14.320;2023-05-09T03:18:12;101500.50;;;6.09;89.57
7168;BME280;3625;51.762;14.320;2023-05-09T03:20:41;101510.16;;;6.10;90.22
7168;BME280;3625;51.762;14.320;2023-05-09T03:23:10;101513.69;;;6.12;89.74
7168;BME280;3625;51.762;14.320;2023-05-09T03:25:39;101508.44;;;6.12;89.10
7168;BME280;3625;51.762;14.320;2023-05-09T03:28:09;101503.19;;;6.12;88.92
7168;BME280;3625;51.762;14.320;2023-05-09T03:30:38;101497.91;;;6.12;88.67
7168;BME280;3625;51.762;14.320;2023-05-09T03:33:12;101495.38;;;6.18;90.40
7168;BME280;3625;51.762;14.320;2023-05-09T03:35:41;101487.44;;;6.15;89.92
7168;BME280;3625;51.762;14.320;2023-05-09T03:38:10;101491.81;;;6.13;90.41
7168;BME280;3625;51.762;14.320;2023-05-09T03:40:39;101489.22;;;6.17;91.77
7168;BME280;3625;51.762;14.320;2023-05-09T03:43:10;101492.78;;;6.21;92.43
7168;BME280;3625;51.762;14.320;2023-05-09T03:45:39;101498.06;;;6.22;92.09
7168;BME280;3625;51.762;14.320;2023-05-09T03:48:09;101492.78;;;6.24;92.54
7168;BME280;3625;51.762;14.320;2023-05-09T03:50:45;101495.53;;;6.33;93.28
7168;BME280;3625;51.762;14.320;2023-05-09T03:53:15;101490.34;;;6.37;93.16
7168;BME280;3625;51.762;14.320;2023-05-09T03:55:46;101496.50;;;6.39;93.17
7168;BME280;3625;51.762;14.320;2023-05-09T03:58:15;101500.03;;;6.43;91.86
7168;BME280;3625;51.762;14.320;2023-05-09T04:00:46;101493.06;;;6.45;92.13
7168;BME280;3625;51.762;14.320;2023-05-09T04:03:20;101495.75;;;6.51;92.60
7168;BME280;3625;51.762;14.320;2023-05-09T04:05:53;101494.94;;;6.57;92.58
7168;BME280;3625;51.762;14.320;2023-05-09T04:08:36;101493.25;;;6.63;92.18
7168;BME280;3625;51.762;14.320;2023-05-09T04:11:05;101493.28;;;6.68;92.37
7168;BME280;3625;51.762;14.320;2023-05-09T04:13:37;101426.34;;;6.31;91.67
7168;BME280;3625;51.762;14.320;2023-05-09T04:16:16;101482.00;;;6.78;92.07
7168;BME280;3625;51.762;14.320;2023-05-09T04:18:45;101491.66;;;6.79;91.37
7168;BME280;3625;51.762;14.320;2023-05-09T04:21:16;101493.44;;;6.81;91.79
7168;BME280;3625;51.762;14.320;2023-05-09T04:23:48;101493.47;;;6.85;91.45
7168;BME280;3625;51.762;14.320;2023-05-09T04:26:21;101491.78;;;6.90;91.58
7168;BME280;3625;51.762;14.320;2023-05-09T04:28:54;101491.84;;;6.97;91.45
7168;BME280;3625;51.762;14.320;2023-05-09T04:32:04;101491.03;;;7.04;90.63
7168;BME280;3625;51.762;14.320;2023-05-09T04:34:52;101492.81;;;7.07;91.12
7168;BME280;3625;51.762;14.320;2023-05-09T04:37:26;101493.69;;;7.10;90.91
7168;BME280;3625;51.762;14.320;2023-05-09T04:39:55;101494.63;;;7.15;91.37
7168;BME280;3625;51.762;14.320;2023-05-09T04:42:36;101503.41;;;7.19;90.75
7168;BME280;3625;51.762;14.320;2023-05-09T04:45:05;101499.06;;;7.23;90.23
7168;BME280;3625;51.762;14.320;2023-05-09T04:47:35;101506.13;;;7.25;89.36
7168;BME280;3625;51.762;14.320;2023-05-09T04:50:04;101490.38;;;7.36;90.33
7168;BME280;3625;51.762;14.320;2023-05-09T04:52:35;101498.34;;;7.45;89.17
7168;BME280;3625;51.762;14.320;2023-05-09T04:55:05;101495.78;;;7.49;88.88
7168;BME280;3625;51.762;14.320;2023-05-09T04:57:38;101498.44;;;7.57;88.39
7168;BME280;3625;51.762;14.320;2023-05-09T05:00:08;101504.66;;;7.67;88.41
7168;BME280;3625;51.762;14.320;2023-05-09T05:02:39;101509.09;;;7.74;87.67
7168;BME280;3625;51.762;14.320;2023-05-09T05:05:08;101510.06;;;7.86;87.75
7168;BME280;3625;51.762;14.320;2023-05-09T05:07:43;101510.13;;;8.00;87.35
7168;BME280;3625;51.762;14.320;2023-05-09T05:10:18;101504.91;;;8.14;86.91
7168;BME280;3625;51.762;14.320;2023-05-09T05:12:52;101494.41;;;8.26;86.67
7168;BME280;3625;51.762;14.320;2023-05-09T05:15:21;101504.22;;;8.47;85.71
7168;BME280;3625;51.762;14.320;2023-05-09T05:17:53;101498.97;;;8.65;83.74
7168;BME280;3625;51.762;14.320;2023-05-09T05:20:27;101506.03;;;8.83;81.22
7168;BME280;3625;51.762;14.320;2023-05-09T05:22:57;101503.41;;;8.93;79.74
7168;BME280;3625;51.762;14.320;2023-05-09T05:25:27;101502.56;;;9.03;78.78
7168;BME280;3625;51.762;14.320;2023-05-09T05:27:57;101502.56;;;9.13;79.07
7168;BME280;3625;51.762;14.320;2023-05-09T05:30:26;101502.53;;;9.17;79.05
7168;BME280;3625;51.762;14.320;2023-05-09T05:32:58;101497.25;;;9.26;78.42
7168;BME280;3625;51.762;14.320;2023-05-09T05:35:27;101500.78;;;9.34;78.51
7168;BME280;3625;51.762;14.320;2023-05-09T05:37:59;101499.94;;;9.41;78.16
7168;BME280;3625;51.762;14.320;2023-05-09T05:40:28;101492.84;;;9.45;77.94
7168;BME280;3625;51.762;14.320;2023-05-09T05:43:01;101484.06;;;9.49;77.28
7168;BME280;3625;51.762;14.320;2023-05-09T05:45:31;101480.53;;;9.56;73.31
7168;BME280;3625;51.762;14.320;2023-05-09T05:48:03;101488.44;;;9.62;74.26
7168;BME280;3625;51.762;14.320;2023-05-09T05:50:32;101477.88;;;9.64;73.96
7168;BME280;3625;51.762;14.320;2023-05-09T05:53:16;101477.88;;;9.68;73.77
7168;BME280;3625;51.762;14.320;2023-05-09T05:55:45;101479.59;;;9.72;72.12
7168;BME280;3625;51.762;14.320;2023-05-09T05:58:15;101482.25;;;9.75;72.66
7168;BME280;3625;51.762;14.320;2023-05-09T06:00:44;101471.69;;;9.75;72.67
7168;BME280;3625;51.762;14.320;2023-05-09T06:03:14;101478.69;;;9.79;72.57
7168;BME280;3625;51.762;14.320;2023-05-09T06:05:51;101475.16;;;9.87;71.01
7168;BME280;3625;51.762;14.320;2023-05-09T06:08:21;101427.66;;;9.68;69.36
7168;BME280;3625;51.762;14.320;2023-05-09T06:10:50;101461.91;;;10.02;70.57
7168;BME280;3625;51.762;14.320;2023-05-09T06:13:20;101461.88;;;10.06;69.83
7168;BME280;3625;51.762;14.320;2023-05-09T06:15:55;101463.59;;;10.15;69.15
7168;BME280;3625;51.762;14.320;2023-05-09T06:18:43;101452.13;;;10.24;68.42
7168;BME280;3625;51.762;14.320;2023-05-09T06:21:12;101452.97;;;10.32;68.69
7168;BME280;3625;51.762;14.320;2023-05-09T06:23:42;101458.22;;;10.44;67.16
7168;BME280;3625;51.762;14.320;2023-05-09T06:26:32;101450.22;;;10.51;66.76
7168;BME280;3625;51.762;14.320;2023-05-09T06:29:01;101451.94;;;10.58;65.27
7168;BME280;3625;51.762;14.320;2023-05-09T06:31:29;101446.63;;;10.63;66.03
7168;BME280;3625;51.762;14.320;2023-05-09T06:33:59;101449.22;;;10.68;66.77
7168;BME280;3625;51.762;14.320;2023-05-09T06:36:28;101443.81;;;10.89;62.07
7168;BME280;3625;51.762;14.320;2023-05-09T06:39:00;101450.75;;;10.99;63.23
7168;BME280;3625;51.762;14.320;2023-05-09T06:41:31;101445.38;;;11.10;61.09
7168;BME280;3625;51.762;14.320;2023-05-09T06:44:00;101436.53;;;11.15;60.92
7168;BME280;3625;51.762;14.320;2023-05-09T06:46:29;101433.81;;;11.21;60.96
7168;BME280;3625;51.762;14.320;2023-05-09T06:48:58;101432.84;;;11.30;60.30
7168;BME280;3625;51.762;14.320;2023-05-09T06:51:28;101429.22;;;11.37;60.92
7168;BME280;3625;51.762;14.320;2023-05-09T06:53:58;101425.59;;;11.47;60.42
7168;BME280;3625;51.762;14.320;2023-05-09T06:56:27;101426.41;;;11.52;59.77
7168;BME280;3625;51.762;14.320;2023-05-09T06:58:56;101418.44;;;11.55;59.95
7168;BME280;3625;51.762;14.320;2023-05-09T07:01:25;101415.72;;;11.60;58.96
7168;BME280;3625;51.762;14.320;2023-05-09T07:03:54;101414.75;;;11.70;59.14
7168;BME280;3625;51.762;14.320;2023-05-09T07:06:22;101408.47;;;11.80;58.91
7168;BME280;3625;51.762;14.320;2023-05-09T07:08:51;101410.16;;;11.87;56.47
7168;BME280;3625;51.762;14.320;2023-05-09T07:11:21;101414.44;;;11.99;56.82
7168;BME280;3625;51.762;14.320;2023-05-09T07:13:50;101404.63;;;12.04;55.39
7168;BME280;3625;51.762;14.320;2023-05-09T07:16:19;101401.91;;;12.10;54.77
7168;BME280;3625;51.762;14.320;2023-05-09T07:18:49;101408.00;;;12.18;55.06
7168;BME280;3625;51.762;14.320;2023-05-09T07:21:18;101399.94;;;12.24;55.17
7168;BME280;3625;51.762;14.320;2023-05-09T07:23:47;101403.34;;;12.34;54.04
7168;BME280;3625;51.762;14.320;2023-05-09T07:26:22;101395.28;;;12.40;53.82
7168;BME280;3625;51.762;14.320;2023-05-09T07:28:51;101400.50;;;12.46;53.13
7168;BME280;3625;51.762;14.320;2023-05-09T07:31:19;101396.94;;;12.47;53.65
7168;BME280;3625;51.762;14.320;2023-05-09T07:33:48;101400.44;;;12.52;50.23
7168;BME280;3625;51.762;14.320;2023-05-09T07:36:17;101390.63;;;12.54;51.57
7168;BME280;3625;51.762;14.320;2023-05-09T07:38:48;101393.28;;;12.54;51.73
7168;BME280;3625;51.762;14.320;2023-05-09T07:41:20;101377.31;;;12.59;52.26
7168;BME280;3625;51.762;14.320;2023-05-09T07:43:52;101380.75;;;12.65;52.27
7168;BME280;3625;51.762;14.320;2023-05-09T07:46:21;101377.16;;;12.69;51.76
7168;BME280;3625;51.762;14.320;2023-05-09T07:48:50;101373.53;;;12.73;51.61
7168;BME280;3625;51.762;14.320;2023-05-09T07:51:18;101371.63;;;12.80;51.09
7168;BME280;3625;51.762;14.320;2023-05-09T07:53:47;101373.38;;;12.82;49.77
7168;BME280;3625;51.762;14.320;2023-05-09T07:56:16;101374.13;;;12.89;49.46
7168;BME280;3625;51.762;14.320;2023-05-09T07:58:46;101362.59;;;12.92;49.35
7168;BME280;3625;51.762;14.320;2023-05-09T08:01:15;101361.66;;;12.96;49.71
7168;BME280;3625;51.762;14.320;2023-05-09T08:03:44;101356.19;;;13.03;49.28
7168;BME280;3625;51.762;14.320;2023-05-09T08:06:13;101353.47;;;13.06;49.08
7168;BME280;3625;51.762;14.320;2023-05-09T08:08:41;101361.31;;;13.15;49.61
7168;BME280;3625;51.762;14.320;2023-05-09T08:11:10;101346.97;;;13.24;49.31
7168;BME280;3625;51.762;14.320;2023-05-09T08:13:39;101352.16;;;13.32;48.98
7168;BME280;3625;51.762;14.320;2023-05-09T08:16:09;101352.94;;;13.37;47.20
7168;BME280;3625;51.762;14.320;2023-05-09T08:18:38;101349.34;;;13.39;47.73
7168;BME280;3625;51.762;14.320;2023-05-09T08:21:07;101354.53;;;13.45;45.80
7168;BME280;3625;51.762;14.320;2023-05-09T08:23:35;101341.22;;;13.47;47.11
7168;BME280;3625;51.762;14.320;2023-05-09T08:26:04;101336.66;;;13.53;47.88
7168;BME280;3625;51.762;14.320;2023-05-09T08:28:33;101337.31;;;13.65;45.45
7168;BME280;3625;51.762;14.320;2023-05-09T08:31:02;101332.88;;;13.65;45.91
7168;BME280;3625;51.762;14.320;2023-05-09T08:33:32;101329.16;;;13.74;44.77
7168;BME280;3625;51.762;14.320;2023-05-09T08:36:01;101334.38;;;13.77;45.46
7168;BME280;3625;51.762;14.320;2023-05-09T08:38:29;101319.22;;;13.82;46.41
7168;BME280;3625;51.762;14.320;2023-05-09T08:41:01;101318.19;;;13.89;45.60
7168;BME280;3625;51.762;14.320;2023-05-09T08:43:33;101318.13;;;13.92;46.43
7168;BME280;3625;51.762;14.320;2023-05-09T08:46:07;101307.25;;;14.01;45.37
7168;BME280;3625;51.762;14.320;2023-05-09T08:48:38;101319.44;;;14.11;45.06
7168;BME280;3625;51.762;14.320;2023-05-09T08:51:07;101323.09;;;14.07;44.90
7168;BME280;3625;51.762;14.320;2023-05-09T08:53:37;101307.19;;;14.04;45.35
7168;BME280;3625;51.762;14.320;2023-05-09T08:56:06;101296.53;;;14.04;46.32
7168;BME280;3625;51.762;14.320;2023-05-09T08:58:35;101303.41;;;14.14;46.79
7168;BME280;3625;51.762;14.320;2023-05-09T09:01:04;101295.88;;;14.31;46.40
7168;BME280;3625;51.762;14.320;2023-05-09T09:03:34;101292.25;;;14.35;46.12
7168;BME280;3625;51.762;14.320;2023-05-09T09:06:07;101306.28;;;14.44;45.53
7168;BME280;3625;51.762;14.320;2023-05-09T09:08:37;101294.69;;;14.45;45.56
7168;BME280;3625;51.762;14.320;2023-05-09T09:11:06;101278.66;;;14.48;46.08
7168;BME280;3625;51.762;14.320;2023-05-09T09:13:40;101287.28;;;14.57;45.83
7168;BME280;3625;51.762;14.320;2023-05-09T09:16:09;101286.25;;;14.63;44.23
7168;BME280;3625;51.762;14.320;2023-05-09T09:18:42;101278.06;;;14.70;44.07
7168;BME280;3625;51.762;14.320;2023-05-09T09:21:15;101285.06;;;14.75;44.26
7168;BME280;3625;51.762;14.320;2023-05-09T09:23:46;101270.94;;;14.71;44.44
7168;BME280;3625;51.762;14.320;2023-05-09T09:26:15;101271.00;;;14.69;44.41
7168;BME280;3625;51.762;14.320;2023-05-09T09:28:43;101270.94;;;14.71;43.66
7168;BME280;3625;51.762;14.320;2023-05-09T09:31:19;101262.03;;;14.72;44.11
7168;BME280;3625;51.762;14.320;2023-05-09T09:33:49;101253.94;;;14.77;44.10
7168;BME280;3625;51.762;14.320;2023-05-09T09:36:27;101259.81;;;14.89;44.11
7168;BME280;3625;51.762;14.320;2023-05-09T09:38:58;101258.72;;;14.96;43.83
7168;BME280;3625;51.762;14.320;2023-05-09T09:41:31;101265.66;;;15.03;44.11
7168;BME280;3625;51.762;14.320;2023-05-09T09:44:06;101257.47;;;15.09;44.17
7168;BME280;3625;51.762;14.320;2023-05-09T09:46:41;101248.56;;;15.10;43.48
7168;BME280;3625;51.762;14.320;2023-05-09T09:49:11;101251.00;;;15.18;43.94
7168;BME280;3625;51.762;14.320;2023-05-09T09:51:42;101245.50;;;15.24;44.28
7168;BME280;3625;51.762;14.320;2023-05-09T09:54:11;101247.91;;;15.33;43.35
7168;BME280;3625;51.762;14.320;2023-05-09T09:56:41;101245.03;;;15.39;43.62
7168;BME280;3625;51.762;14.320;2023-05-09T09:59:12;101237.84;;;15.43;42.81
7168;BME280;3625;51.762;14.320;2023-05-09T10:01:57;101240.41;;;15.46;42.84
7168;BME280;3625;51.762;14.320;2023-05-09T10:04:28;101223.38;;;15.50;42.77
7168;BME280;3625;51.762;14.320;2023-05-09T10:07:00;101225.94;;;15.56;43.23
7168;BME280;3625;51.762;14.320;2023-05-09T10:09:33;101206.50;;;15.49;42.82
7168;BME280;3625;51.762;14.320;2023-05-09T10:12:05;101222.16;;;15.63;43.14
7168;BME280;3625;51.762;14.320;2023-05-09T10:14:36;101212.06;;;15.73;43.07
7168;BME280;3625;51.762;14.320;2023-05-09T10:17:05;101208.25;;;15.81;43.37
7168;BME280;3625;51.762;14.320;2023-05-09T10:19:35;101204.41;;;15.90;42.51
7168;BME280;3625;51.762;14.320;2023-05-09T10:22:09;101208.69;;;15.94;40.58
7168;BME280;3625;51.762;14.320;2023-05-09T10:24:41;101210.63;;;15.91;40.05
7168;BME280;3625;51.762;14.320;2023-05-09T10:27:11;101204.28;;;15.93;40.88
7168;BME280;3625;51.762;14.320;2023-05-09T10:29:44;101193.56;;;15.95;41.60
7168;BME280;3625;51.762;14.320;2023-05-09T10:32:22;101203.09;;;16.02;41.58
7168;BME280;3625;51.762;14.320;2023-05-09T10:34:58;101194.03;;;16.07;41.63
7168;BME280;3625;51.762;14.320;2023-05-09T10:37:31;101195.53;;;16.16;42.30
7168;BME280;3625;51.762;14.320;2023-05-09T10:40:03;101190.63;;;16.29;41.07
7168;BME280;3625;51.762;14.320;2023-05-09T10:42:32;101193.97;;;16.35;41.89
7168;BME280;3625;51.762;14.320;2023-05-09T10:45:01;101182.34;;;16.36;41.79
7168;BME280;3625;51.762;14.320;2023-05-09T10:47:30;101178.78;;;16.37;41.84
7168;BME280;3625;51.762;14.320;2023-05-09T10:50:00;101173.72;;;16.54;40.84
7168;BME280;3625;51.762;14.320;2023-05-09T10:52:32;101169.28;;;16.53;41.44
7168;BME280;3625;51.762;14.320;2023-05-09T10:55:02;101163.94;;;16.53;41.59
7168;BME280;3625;51.762;14.320;2023-05-09T10:57:31;101167.16;;;16.65;40.47
7168;BME280;3625;51.762;14.320;2023-05-09T11:00:00;101164.38;;;16.68;40.37
7168;BME280;3625;51.762;14.320;2023-05-09T11:02:29;101168.94;;;16.64;39.71
7168;BME280;3625;51.762;14.320;2023-05-09T11:05:14;101164.25;;;16.71;39.77
7168;BME280;3625;51.762;14.320;2023-05-09T11:07:44;101166.19;;;16.67;38.84
7168;BME280;3625;51.762;14.320;2023-05-09T11:10:15;101161.81;;;16.65;39.13
7168;BME280;3625;51.762;14.320;2023-05-09T11:12:55;101150.34;;;16.61;39.92
7168;BME280;3625;51.762;14.320;2023-05-09T11:15:25;101145.78;;;16.65;40.04
7168;BME280;3625;51.762;14.320;2023-05-09T11:18:05;101140.78;;;16.79;39.43
7168;BME280;3625;51.762;14.320;2023-05-09T11:20:35;101139.66;;;16.86;38.59
7168;BME280;3625;51.762;14.320;2023-05-09T11:23:11;101065.28;;;16.49;38.20
7168;BME280;3625;51.762;14.320;2023-05-09T11:25:42;101134.22;;;16.87;38.68
7168;BME280;3625;51.762;14.320;2023-05-09T11:28:26;101124.41;;;16.88;38.80
7168;BME280;3625;51.762;14.320;2023-05-09T11:31:09;101114.59;;;16.88;38.14
7168;BME280;3625;51.762;14.320;2023-05-09T11:33:39;101116.88;;;16.99;38.46
7168;BME280;3625;51.762;14.320;2023-05-09T11:36:15;101104.94;;;17.08;38.86
7168;BME280;3625;51.762;14.320;2023-05-09T11:38:47;101105.72;;;17.11;38.93
7168;BME280;3625;51.762;14.320;2023-05-09T11:41:15;101102.84;;;17.16;39.00
7168;BME280;3625;51.762;14.320;2023-05-09T11:43:44;101090.34;;;17.16;38.70
7168;BME280;3625;51.762;14.320;2023-05-09T11:46:13;101101.97;;;17.15;38.68
7168;BME280;3625;51.762;14.320;2023-05-09T11:48:42;101094.72;;;17.19;38.74
7168;BME280;3625;51.762;14.320;2023-05-09T11:51:16;101091.78;;;17.25;37.88
7168;BME280;3625;51.762;14.320;2023-05-09T11:53:49;101084.63;;;17.25;38.24
7168;BME280;3625;51.762;14.320;2023-05-09T11:56:20;101080.72;;;17.34;37.78
7168;BME280;3625;51.762;14.320;2023-05-09T11:58:51;101076.41;;;17.30;37.05
7168;BME280;3625;51.762;14.320;2023-05-09T12:01:22;101074.75;;;17.27;37.49
7168;BME280;3625;51.762;14.320;2023-05-09T12:03:51;101072.25;;;17.23;37.83
7168;BME280;3625;51.762;14.320;2023-05-09T12:06:20;101070.34;;;17.26;38.06
7168;BME280;3625;51.762;14.320;2023-05-09T12:08:50;101069.09;;;17.35;38.80
7168;BME280;3625;51.762;14.320;2023-05-09T12:11:20;101069.97;;;17.35;37.53
7168;BME280;3625;51.762;14.320;2023-05-09T12:13:51;101053.88;;;17.37;37.87
7168;BME280;3625;51.762;14.320;2023-05-09T12:16:20;101053.66;;;17.42;38.58
7168;BME280;3625;51.762;14.320;2023-05-09T12:18:50;101042.97;;;17.42;38.43
7168;BME280;3625;51.762;14.320;2023-05-09T12:21:20;101042.84;;;17.45;38.14
7168;BME280;3625;51.762;14.320;2023-05-09T12:23:55;101029.22;;;17.51;38.23
7168;BME280;3625;51.762;14.320;2023-05-09T12:26:24;101034.28;;;17.57;37.86
7168;BME280;3625;51.762;14.320;2023-05-09T12:28:53;101030.56;;;17.61;37.67
7168;BME280;3625;51.762;14.320;2023-05-09T12:31:22;101021.66;;;17.60;37.91
7168;BME280;3625;51.762;14.320;2023-05-09T12:33:51;100954.59;;;17.23;37.86
7168;BME280;3625;51.762;14.320;2023-05-09T12:36:20;101015.38;;;17.63;38.10
7168;BME280;3625;51.762;14.320;2023-05-09T12:38:55;101009.16;;;17.61;38.27
7168;BME280;3625;51.762;14.320;2023-05-09T12:41:25;101009.91;;;17.64;38.13
7168;BME280;3625;51.762;14.320;2023-05-09T12:44:06;101011.66;;;17.65;37.93
7168;BME280;3625;51.762;14.320;2023-05-09T12:46:34;100987.66;;;17.64;38.46
7168;BME280;3625;51.762;14.320;2023-05-09T12:49:04;100996.16;;;17.73;38.27
7168;BME280;3625;51.762;14.320;2023-05-09T12:51:33;100998.63;;;17.78;37.64
7168;BME280;3625;51.762;14.320;2023-05-09T12:54:03;100998.56;;;17.80;38.03
7168;BME280;3625;51.762;14.320;2023-05-09T12:56:33;100993.06;;;17.83;38.26
7168;BME280;3625;51.762;14.320;2023-05-09T12:59:03;100984.69;;;17.90;38.80
7168;BME280;3625;51.762;14.320;2023-05-09T13:01:31;100991.38;;;18.00;38.10
7168;BME280;3625;51.762;14.320;2023-05-09T13:04:04;100991.34;;;18.02;37.40
7168;BME280;3625;51.762;14.320;2023-05-09T13:06:47;100914.63;;;17.60;37.22
7168;BME280;3625;51.762;14.320;2023-05-09T13:09:18;100978.16;;;17.97;36.66
7168;BME280;3625;51.762;14.320;2023-05-09T13:11:48;100985.16;;;18.00;37.58
7168;BME280;3625;51.762;14.320;2023-05-09T13:14:17;100976.94;;;18.04;37.46
7168;BME280;3625;51.762;14.320;2023-05-09T13:16:48;100974.34;;;18.03;37.98
7168;BME280;3625;51.762;14.320;2023-05-09T13:19:16;100974.22;;;18.06;37.91
7168;BME280;3625;51.762;14.320;2023-05-09T13:21:45;100961.75;;;18.05;37.48
7168;BME280;3625;51.762;14.320;2023-05-09T13:24:19;100959.94;;;18.05;38.05
7168;BME280;3625;51.762;14.320;2023-05-09T13:26:49;100949.16;;;18.07;38.29